Station: Adelaide Airport

  Atmospheric Gas Attenuation - ITU Rec 676-11   --------------- db/100km ---------------
Date Time Temp RH % AH g/m3 Dew Point Wind Direction Speed kph Gust kph Barometer mB Rainfall Since 9am 24GHz 47GHz 76GHz 122GHz 134GHz 241GHz
25 01:10 15.8 75 10.1 11.5 0 0 1012.5 0 22.7 27.7 44.8 117.8 115.6 399.1
25 01:00 15.9 74 10.02 11.4 6 6 1012.5 0 22.5 27.6 44.4 116.8 114.4 394.8
25 00:50 16.1 74 10.14 11.5 7 7 1012.6 0 22.8 27.7 44.8 117.8 115.7 399.4
25 00:40 16.2 72 9.93 11.2 7 7 1012.7 0 22.3 27.3 43.9 115.4 112.8 389.1
25 00:30 16.3 72 9.99 11.3 0 0 1012.9 0 22.4 27.4 44.1 115.9 113.4 391.5
25 00:20 16.3 72 9.99 11.3 0 0 1013 0 22.4 27.4 44.1 115.9 113.5 391.5
25 00:10 16.6 70 9.89 11.2 4 6 1013.2 0 22.2 27.2 43.5 114.4 111.7 385.4
25 00:00 16.6 69 9.75 11 7 7 1013.3 0 21.9 26.9 43.0 112.9 109.9 378.9
24 23:50 16.7 67 9.52 10.7 1013.4 0 21.4 26.5 42.0 110.3 106.7 367.9
24 23:40 16.5 67 9.41 10.5 9 9 1013.4 0 21.2 26.4 41.7 109.4 105.5 363.8
24 23:30 16.5 67 9.41 10.5 0 0 1013.5 0 21.2 26.4 41.7 109.5 105.5 363.8
24 23:20 16.5 68 9.55 10.7 0 0 1013.6 0 21.5 26.6 42.2 111.0 107.4 370.3
24 23:10 17.7 68 10.26 11.7 0 0 1013.7 0 22.9 27.4 44.4 116.9 115.1 397.3
24 23:00 17.7 68 10.26 11.7 0 0 1013.8 0 22.9 27.4 44.4 116.9 115.1 397.3
24 22:50 18 69 10.6 12.2 0 0 1013.8 0 23.6 27.9 45.6 120.1 119.1 411.6
24 22:40 18.3 66 10.32 11.9 0 0 1013.9 0 23.0 27.4 44.3 116.6 115.0 397.1
24 22:30 18.4 65 10.22 11.7 6 6 1014 0 22.8 27.2 43.9 115.4 113.5 392.0
24 22:20 18.6 63 10.03 11.5 6 6 1014.1 0 22.4 26.8 43.0 113.1 110.8 382.4
24 22:10 18.8 61 9.82 11.1 7 7 1014.1 0 21.9 26.4 42.1 110.6 107.8 371.9
24 22:00 18.9 61 9.88 11.2 1014.1 0 22.1 26.5 42.3 111.1 108.4 374.1
24 21:50 19 57 9.29 10.4 7 9 1014.1 0 20.8 25.5 39.9 104.9 100.7 347.3
24 21:40 19.1 58 9.51 10.8 9 11 1014.1 0 21.3 25.8 40.7 107.0 103.4 356.6
24 21:30 19.1 61 10 11.4 9 11 1014 0 22.3 26.6 42.6 112.1 109.7 378.6
24 21:20 18.8 63 10.15 11.7 11 13 1014 0 22.6 26.9 43.4 114.1 112.0 386.8
24 21:10 18.8 63 10.15 11.7 11 13 1013.9 0 22.6 26.9 43.4 114.1 112.0 386.8
24 21:00 19 65 10.59 12.4 11 13 1014 0 23.6 27.6 45.0 118.5 117.5 406.0
24 20:50 19.3 62 10.28 11.9 11 13 1014.1 0 22.9 27.0 43.6 114.8 113.0 390.3
24 20:40 19.3 61 10.12 11.7 13 15 1014 0 22.5 26.7 43.0 113.1 110.9 383.0
24 20:30 19.4 64 10.68 12.4 15 15 1014 0 23.7 27.6 45.2 118.9 118.1 408.0
24 20:20 19.3 66 10.95 12.9 13 17 1014 0 24.3 28.1 46.3 121.9 121.8 421.1
24 20:10 19.2 70 11.54 13.6 17 19 1014.1 0 25.6 29.1 48.8 128.5 129.9 449.3
24 20:00 19.4 68 11.34 13.4 15 17 1014.1 0 25.1 28.7 47.9 126.0 126.9 438.8
24 19:50 19.4 68 11.34 13.4 19 22 1014.1 0 25.1 28.7 47.9 126.0 126.9 438.8
24 19:40 19.9 62 10.65 12.4 17 17 1014 0 23.6 27.4 44.8 117.8 116.9 404.1
24 19:30 19.9 58 9.96 11.6 20 24 1014 0 22.2 26.3 42.1 110.6 108.0 373.0
24 19:20 20 58 10.02 11.5 19 22 1014 0 22.3 26.4 42.2 111.0 108.7 375.2
24 19:10 19.9 59 10.14 11.8 19 24 1013.9 0 22.6 26.6 42.8 112.4 110.3 381.0
24 19:00 20 61 10.54 12.3 24 26 1013.9 0 23.4 27.2 44.3 116.5 115.3 398.6
24 18:50 19.9 57 9.79 11.3 24 28 1014 0 21.8 26.0 41.4 108.8 105.9 365.4
24 18:40 20.2 51 8.92 9.9 19 20 1014 0 20.0 24.6 38.0 99.6 94.6 326.2
24 18:30 20.3 56 9.85 11.2 19 22 1013.9 0 21.9 26.0 41.4 108.9 106.1 366.2
24 18:20 20.4 52 9.2 10.4 24 26 1013.9 0 20.5 25.0 38.9 102.2 97.8 337.4
24 18:10 20.8 52 9.41 10.7 19 22 1014 0 21.0 25.2 39.5 103.8 99.9 344.8
24 18:00 20.4 52 9.2 10.4 20 26 1014.1 0 20.5 25.0 38.9 102.2 97.9 337.4
24 17:50 20.2 51 8.92 9.7 20 24 1014.1 0 20.0 24.6 38.0 99.6 94.7 326.2
24 17:40 20 52 8.99 9.9 24 26 1014.1 0 20.1 24.8 38.3 100.6 95.8 330.0
24 17:30 21 46 8.43 8.9 20 26 1014.1 0 18.9 23.7 35.8 93.9 87.8 302.3
24 17:20 20.9 46 8.38 9 24 28 1014.2 0 18.8 23.6 35.7 93.5 87.3 300.6
24 17:10 20.7 47 8.46 9.2 26 28 1014.3 0 19.0 23.8 36.1 94.5 88.5 304.8
24 17:00 21.4 43 8.06 8.5 26 32 1014.4 0 18.1 23.1 34.3 89.9 83.0 285.6
24 16:50 20.5 42 7.47 7.2 26 30 1014.4 0 16.9 22.4 32.6 85.3 77.1 264.6
24 16:40 20.5 45 8.01 8.2 24 28 1014.5 0 18.0 23.2 34.5 90.4 83.4 286.8
24 16:30 20.6 46 8.23 8.6 22 26 1014.6 0 18.5 23.5 35.3 92.4 85.9 295.6
24 16:20 20.8 46 8.33 8.9 24 32 1014.7 0 18.7 23.6 35.6 93.2 86.9 299.0
24 16:10 20.4 47 8.31 8.8 26 30 1014.9 0 18.7 23.7 35.7 93.5 87.1 299.7
24 16:00 20.1 51 8.86 9.6 26 30 1014.9 0 19.8 24.6 37.8 99.2 94.1 324.2
24 15:50 20.2 48 8.39 9 26 30 1015 0 18.8 23.9 36.0 94.5 88.3 303.9
24 15:40 20.2 51 8.92 9.7 28 32 1015 0 20.0 24.7 38.0 99.7 94.7 326.4
24 15:30 19.9 51 8.76 9.6 26 32 1015.1 0 19.6 24.5 37.6 98.5 93.1 320.8
24 15:20 19.7 57 9.68 10.9 26 30 1015.2 0 21.6 26.0 41.1 108.1 104.8 361.8
24 15:10 20.2 58 10.14 11.7 22 30 1015.3 0 22.5 26.5 42.7 112.1 110.0 380.0
24 15:00 20.2 58 10.14 11.7 22 26 1015.5 0 22.5 26.6 42.7 112.2 110.0 380.0
24 14:50 19.3 59 9.79 11.2 24 32 1015.7 0 21.8 26.3 41.8 109.8 106.8 368.7
24 14:40 19.3 61 10.12 11.7 30 33 1015.8 0 22.5 26.8 43.1 113.3 111.1 383.6
24 14:30 19.6 56 9.45 10.7 30 33 1015.8 0 21.1 25.7 40.3 105.9 102.1 352.2
24 14:20 19.5 59 9.9 11.3 32 33 1015.9 0 22.1 26.4 42.1 110.7 108.0 372.7
24 14:10 19.6 59 9.96 11.4 30 33 1016.1 0 22.2 26.5 42.3 111.2 108.6 375.0
24 14:00 19.1 59 9.67 11 28 32 1016.2 0 21.6 26.2 41.5 108.9 105.6 364.4
24 13:50 19.4 57 9.51 10.7 32 33 1016.4 0 21.2 25.8 40.7 106.9 103.2 356.0
24 13:40 19.3 58 9.62 10.8 32 35 1016.6 0 21.5 26.0 41.2 108.1 104.7 361.4
24 13:30 19 61 9.94 11.3 1016.6 0 22.2 26.6 42.6 111.9 109.3 377.1
24 13:20 19.4 60 10.01 11.4 28 33 1016.6 0 22.3 26.6 42.6 112.1 109.6 378.4
24 13:10 19.1 58 9.51 10.8 32 37 1016.9 0 21.3 25.9 40.9 107.3 103.6 357.4
24 13:00 18.6 61 9.71 11 28 33 1017 0 21.7 26.4 41.9 110.1 106.9 368.7
24 12:50 18.5 60 9.49 10.7 28 35 1017.1 0 21.2 26.1 41.1 107.9 104.2 359.3
24 12:40 18.8 59 9.5 10.8 32 33 1017 0 21.2 26.0 41.0 107.6 103.9 358.4
24 12:30 18.6 60 9.55 10.8 28 32 1017 0 21.4 26.2 41.3 108.4 104.8 361.5
24 12:20 19 59 9.61 10.9 30 33 1017.1 0 21.5 26.1 41.3 108.5 105.1 362.4
24 12:10 18.8 58 9.34 10.4 28 33 1017.3 0 20.9 25.8 40.4 106.0 101.9 351.3
24 12:00 18.4 59 9.28 10.4 28 30 1017.6 0 20.8 25.8 40.4 105.9 101.7 350.5
24 11:50 18.4 59 9.28 10.4 26 30 1017.7 0 20.8 25.8 40.4 106.0 101.7 350.5
24 11:40 18.6 59 9.39 10.4 26 32 1017.9 0 21.0 25.9 40.7 106.9 102.8 354.6
24 11:30 18.4 59 9.28 10.4 22 28 1017.8 0 20.8 25.8 40.4 106.0 101.7 350.6
24 11:20 18 60 9.21 10.3 22 26 1017.8 0 20.7 25.8 40.3 105.8 101.3 349.2
24 11:10 17.9 61 9.31 10.4 22 28 1017.8 0 20.9 26.0 40.7 107.0 102.7 354.1
24 11:00 17.9 60 9.16 10.2 15 19 1017.8 0 20.6 25.8 40.2 105.4 100.8 347.4
24 10:50 18.1 59 9.12 10 17 19 1017.9 0 20.5 25.7 39.9 104.7 100.1 344.8
24 10:40 18.2 59 9.17 10.1 13 17 1018 0 20.6 25.7 40.1 105.1 100.6 346.6
24 10:30 17.7 59 8.9 9.7 17 22 1018.1 0 20.0 25.4 39.3 103.0 97.8 336.8
24 10:20 17.8 60 9.11 10.1 17 19 1018.1 0 20.5 25.7 40.0 105.0 100.3 345.7
24 10:10 17.5 60 8.94 9.7 19 22 1018.1 0 20.1 25.6 39.5 103.7 98.5 339.4
24 10:00 17 62 8.97 9.7 13 15 1018.1 0 20.2 25.7 39.9 104.6 99.6 342.9
24 09:50 16.8 62 8.86 9.5 11 15 1018.1 0 20.0 25.6 39.5 103.8 98.4 338.8
24 09:40 17 61 8.83 9.5 15 17 1018.1 0 19.9 25.5 39.3 103.2 97.8 336.6
24 09:30 17.3 62 9.13 9.9 11 11 1018.2 0 20.5 25.9 40.4 105.9 101.2 348.8
24 09:20 17 62 8.97 9.7 7 7 1018.3 0 20.2 25.7 39.9 104.7 99.6 342.9
24 09:10 17.4 61 9.04 9.8 11 13 1018.2 0 20.3 25.7 40.0 104.8 99.9 344.3
24 09:00 16.8 62 8.86 9.5 6 7 1018.2 0 20.0 25.6 39.6 103.8 98.4 338.8
24 08:50 16.6 62 8.76 9.3 11 13 1018.3 0 19.8 25.5 39.3 103.0 97.4 335.2
24 08:40 16.5 61 8.57 9.1 7 9 1018.1 0 19.4 25.3 38.6 101.1 95.1 327.1

Last Refresh: 25-Nov-2020 01:14:58

Most of the information presented on this site is sourced from the Bureau of Meteorology.  Copyright in all material sourced from the Bureau of Meteorology resides with the Commonwealth of Australia.